createdAt,value
2019-05-22T00:01:11.204Z,10.30
2019-05-22T00:03:47.692Z,10.30
2019-05-22T00:06:17.756Z,10.30
2019-05-22T00:08:47.981Z,10.30
2019-05-22T00:11:16.387Z,10.30
2019-05-22T00:13:47.750Z,10.30
2019-05-22T00:16:17.076Z,10.30
2019-05-22T00:18:47.193Z,10.20
2019-05-22T00:21:16.448Z,10.30
2019-05-22T00:23:46.997Z,10.30
2019-05-22T00:26:15.414Z,10.20
2019-05-22T00:28:45.564Z,10.20
2019-05-22T00:31:15.364Z,10.20
2019-05-22T00:33:44.334Z,10.30
2019-05-22T00:36:13.783Z,10.30
2019-05-22T00:38:43.432Z,10.30
2019-05-22T00:41:12.858Z,10.30
2019-05-22T00:43:44.546Z,10.30
2019-05-22T00:46:15.460Z,10.20
2019-05-22T00:48:45.509Z,10.30
2019-05-22T00:51:35.232Z,10.20
2019-05-22T00:54:10.215Z,10.30
2019-05-22T00:56:40.644Z,10.20
2019-05-22T00:59:14.073Z,10.20
2019-05-22T01:01:47.265Z,10.20
2019-05-22T01:04:17.310Z,10.20
2019-05-22T01:06:47.548Z,10.20
2019-05-22T01:09:20.780Z,10.20
2019-05-22T01:11:49.633Z,10.20
2019-05-22T01:14:18.780Z,10.20
2019-05-22T01:16:48.906Z,10.20
2019-05-22T01:19:18.708Z,10.20
2019-05-22T01:21:47.665Z,10.20
2019-05-22T01:24:17.144Z,10.20
2019-05-22T01:26:46.520Z,10.20
2019-05-22T01:29:16.046Z,10.20
2019-05-22T01:31:46.167Z,10.20
2019-05-22T01:34:16.235Z,10.20
2019-05-22T01:36:49.338Z,10.20
2019-05-22T01:39:37.766Z,10.20
2019-05-22T01:42:11.104Z,10.20
2019-05-22T01:44:40.493Z,10.20
2019-05-22T01:47:16.166Z,10.20
2019-05-22T01:49:47.793Z,10.20
2019-05-22T01:52:16.724Z,10.10
2019-05-22T01:54:46.553Z,10.20
2019-05-22T01:57:15.937Z,10.20
2019-05-22T01:59:45.088Z,10.20
2019-05-22T02:02:14.321Z,10.20
2019-05-22T02:04:42.724Z,10.20
2019-05-22T02:07:11.693Z,10.20
2019-05-22T02:09:42.297Z,10.20
2019-05-22T02:12:18.294Z,10.20
2019-05-22T02:14:50.727Z,10.20
2019-05-22T02:17:22.277Z,10.20
2019-05-22T02:19:50.954Z,10.20
2019-05-22T02:22:20.021Z,10.20
2019-05-22T02:24:50.010Z,10.10
2019-05-22T02:27:19.790Z,10.10
2019-05-22T02:29:49.113Z,10.20
2019-05-22T02:32:20.414Z,10.20
2019-05-22T02:34:48.981Z,10.10
2019-05-22T02:37:17.413Z,10.10
2019-05-22T02:39:47.700Z,10.10
2019-05-22T02:42:28.890Z,10.10
2019-05-22T02:44:58.644Z,10.20
2019-05-22T02:47:27.135Z,10.20
2019-05-22T02:49:58.329Z,10.20
2019-05-22T02:52:26.801Z,10.10
2019-05-22T02:54:55.561Z,10.10
2019-05-22T02:57:26.244Z,10.10
2019-05-22T02:59:55.665Z,10.20
2019-05-22T03:02:25.331Z,10.10
2019-05-22T03:05:01.455Z,10.10
2019-05-22T03:07:31.562Z,10.10
2019-05-22T03:10:02.213Z,10.10
2019-05-22T03:12:32.478Z,10.10
2019-05-22T03:15:02.178Z,10.20
2019-05-22T03:17:32.071Z,10.20
2019-05-22T03:20:04.014Z,10.10
2019-05-22T03:22:37.151Z,10.10
2019-05-22T03:25:09.025Z,10.10
2019-05-22T03:27:40.757Z,10.10
2019-05-22T03:30:21.316Z,10.20
2019-05-22T03:32:51.967Z,10.20
2019-05-22T03:35:22.387Z,10.10
2019-05-22T03:37:51.672Z,10.10
2019-05-22T03:40:21.593Z,10.10
2019-05-22T03:42:50.958Z,10.20
2019-05-22T03:45:22.093Z,10.10
2019-05-22T03:47:56.797Z,10.10
2019-05-22T03:50:26.329Z,10.10
2019-05-22T03:52:56.692Z,10.10
2019-05-22T03:55:25.813Z,10.10
2019-05-22T03:57:54.662Z,10.10
2019-05-22T04:00:25.737Z,10.10
2019-05-22T04:02:54.795Z,10.10
2019-05-22T04:05:25.131Z,10.10
2019-05-22T04:07:56.508Z,10.10
2019-05-22T04:10:29.026Z,10.10
2019-05-22T04:12:57.865Z,10.20
2019-05-22T04:15:27.526Z,10.10
2019-05-22T04:17:59.064Z,10.10
2019-05-22T04:20:29.757Z,10.10
2019-05-22T04:22:59.576Z,10.10
2019-05-22T04:25:28.749Z,10.10
2019-05-22T04:27:58.302Z,10.10
2019-05-22T04:30:27.323Z,10.10
2019-05-22T04:32:56.673Z,10.10
2019-05-22T04:35:25.457Z,10.20
2019-05-22T04:37:55.772Z,10.20
2019-05-22T04:40:28.150Z,10.20
2019-05-22T04:42:58.593Z,10.20
2019-05-22T04:45:28.382Z,10.20
2019-05-22T04:48:02.328Z,10.20
2019-05-22T04:50:32.408Z,10.10
2019-05-22T04:53:01.903Z,10.10
2019-05-22T04:55:31.128Z,10.10
2019-05-22T04:58:02.986Z,10.20
2019-05-22T05:00:32.440Z,10.20
2019-05-22T05:03:01.034Z,10.20
2019-05-22T05:05:36.955Z,10.20
2019-05-22T05:08:05.621Z,10.30
2019-05-22T05:10:55.107Z,10.30
2019-05-22T05:13:23.703Z,10.30
2019-05-22T05:15:52.281Z,10.30
2019-05-22T05:18:21.194Z,10.30
2019-05-22T05:20:49.757Z,10.30
2019-05-22T05:23:18.184Z,10.30
2019-05-22T05:25:46.934Z,10.20
2019-05-22T05:28:16.352Z,10.30
2019-05-22T05:30:44.833Z,10.30
2019-05-22T05:33:13.800Z,10.30
2019-05-22T05:35:43.545Z,10.40
2019-05-22T05:38:12.632Z,10.40
2019-05-22T05:40:45.215Z,10.30
2019-05-22T05:43:15.634Z,10.40
2019-05-22T05:45:46.584Z,10.40
2019-05-22T05:48:22.554Z,10.40
2019-05-22T05:50:59.955Z,10.40
2019-05-22T05:53:29.396Z,10.40
2019-05-22T05:56:13.540Z,10.50
2019-05-22T05:58:42.529Z,10.40
2019-05-22T06:01:18.898Z,10.50
2019-05-22T06:03:47.483Z,10.50
2019-05-22T06:06:25.677Z,10.40
2019-05-22T06:08:55.987Z,10.50
2019-05-22T06:11:52.943Z,10.50
2019-05-22T06:14:30.285Z,10.50
2019-05-22T06:17:04.886Z,10.50
2019-05-22T06:19:36.572Z,10.50
2019-05-22T06:22:05.640Z,10.50
2019-05-22T06:24:37.199Z,10.50
2019-05-22T06:27:09.332Z,10.50
2019-05-22T06:29:49.510Z,10.50
2019-05-22T06:32:57.549Z,10.50
2019-05-22T06:35:29.640Z,10.50
2019-05-22T06:38:10.291Z,10.60
2019-05-22T06:40:39.914Z,10.60
2019-05-22T06:43:21.592Z,10.60
2019-05-22T06:45:50.000Z,10.60
2019-05-22T06:48:18.417Z,10.70
2019-05-22T06:50:49.305Z,10.70
2019-05-22T06:53:17.130Z,10.70
2019-05-22T06:55:45.546Z,10.70
2019-05-22T06:58:14.396Z,10.70
2019-05-22T07:00:43.273Z,10.70
2019-05-22T07:03:12.333Z,10.80
2019-05-22T07:05:41.690Z,10.80
2019-05-22T07:08:11.180Z,10.80
2019-05-22T07:10:39.705Z,10.90
2019-05-22T07:13:11.073Z,10.90
2019-05-22T07:15:43.950Z,11.00
2019-05-22T07:18:14.607Z,11.10
2019-05-22T07:20:44.650Z,11.10
2019-05-22T07:23:15.070Z,11.10
2019-05-22T07:25:46.099Z,11.10
2019-05-22T07:28:17.931Z,11.10
2019-05-22T07:30:47.978Z,11.10
2019-05-22T07:33:17.923Z,11.10
2019-05-22T07:36:07.625Z,11.10
2019-05-22T07:38:19.249Z,11.10
2019-05-22T07:40:50.605Z,11.20
2019-05-22T07:43:19.579Z,11.20
2019-05-22T07:45:48.264Z,11.30
2019-05-22T07:48:18.001Z,11.20
2019-05-22T07:50:48.866Z,11.20
2019-05-22T07:53:17.488Z,11.30
2019-05-22T07:55:47.249Z,11.30
2019-05-22T07:58:17.291Z,11.40
2019-05-22T08:00:49.995Z,11.40
2019-05-22T08:03:20.241Z,11.40
2019-05-22T08:05:51.721Z,11.50
2019-05-22T08:08:22.449Z,11.60
2019-05-22T08:10:52.306Z,11.70
2019-05-22T08:13:20.800Z,11.70
2019-05-22T08:15:49.297Z,11.80
2019-05-22T08:18:18.059Z,11.90
2019-05-22T08:20:46.476Z,12.00
2019-05-22T08:23:15.843Z,12.20
2019-05-22T08:25:44.452Z,12.60
2019-05-22T08:28:13.532Z,12.40
2019-05-22T08:30:42.085Z,12.40
2019-05-22T08:33:14.048Z,12.50
2019-05-22T08:35:43.967Z,12.30
2019-05-22T08:38:13.973Z,12.40
2019-05-22T08:40:43.431Z,12.60
2019-05-22T08:43:13.077Z,12.90
2019-05-22T08:45:41.716Z,12.80
2019-05-22T08:48:12.150Z,12.80
2019-05-22T08:50:42.161Z,12.80
2019-05-22T08:53:14.069Z,12.80
2019-05-22T08:55:43.486Z,12.80
2019-05-22T08:58:12.846Z,12.50
2019-05-22T09:00:41.673Z,12.40
2019-05-22T09:03:10.660Z,12.20
2019-05-22T09:05:39.065Z,12.20
2019-05-22T09:08:07.525Z,12.00
2019-05-22T09:10:36.132Z,12.10
2019-05-22T09:13:04.751Z,12.20
2019-05-22T09:15:34.830Z,12.50
2019-05-22T09:18:04.172Z,12.70
2019-05-22T09:20:48.204Z,12.70
2019-05-22T09:23:05.169Z,12.70
2019-05-22T09:25:33.583Z,12.90
2019-05-22T09:28:02.155Z,12.80
2019-05-22T09:30:30.571Z,12.80
2019-05-22T09:32:59.390Z,12.70
2019-05-22T09:35:28.273Z,12.60
2019-05-22T09:37:57.288Z,12.50
2019-05-22T09:40:25.766Z,12.60
2019-05-22T09:42:54.340Z,12.60
2019-05-22T09:45:23.189Z,12.40
2019-05-22T09:47:53.055Z,12.40
2019-05-22T09:50:23.547Z,12.30
2019-05-22T09:52:57.763Z,12.30
2019-05-22T09:55:22.813Z,12.20
2019-05-22T09:57:51.729Z,12.30
2019-05-22T10:00:20.648Z,12.40
2019-05-22T10:02:49.529Z,12.20
2019-05-22T10:05:18.885Z,12.10
2019-05-22T10:07:59.056Z,12.20
2019-05-22T10:10:18.285Z,12.30
2019-05-22T10:12:47.282Z,12.60
2019-05-22T10:15:16.629Z,12.90
2019-05-22T10:17:49.823Z,13.20
2019-05-22T10:20:20.330Z,13.70
2019-05-22T10:22:49.357Z,13.90
2019-05-22T10:25:18.372Z,14.10
2019-05-22T10:27:47.921Z,14.30
2019-05-22T10:30:20.316Z,14.50
2019-05-22T10:32:49.476Z,14.40
2019-05-22T10:35:19.589Z,14.40
2019-05-22T10:37:48.002Z,14.10
2019-05-22T10:40:17.356Z,14.10
2019-05-22T10:42:46.477Z,13.70
2019-05-22T10:45:15.532Z,13.60
2019-05-22T10:47:44.455Z,13.50
2019-05-22T10:50:15.131Z,13.40
2019-05-22T10:52:43.544Z,13.40
2019-05-22T10:55:14.264Z,13.20
2019-05-22T10:57:44.342Z,13.10
2019-05-22T11:00:16.052Z,13.10
2019-05-22T11:02:44.909Z,13.20
2019-05-22T11:05:13.874Z,13.00
2019-05-22T11:07:42.747Z,12.90
2019-05-22T11:10:12.133Z,12.90
2019-05-22T11:12:41.039Z,13.00
2019-05-22T11:15:10.157Z,12.90
2019-05-22T11:17:39.012Z,12.90
2019-05-22T11:20:09.749Z,12.90
2019-05-22T11:22:38.301Z,12.80
2019-05-22T11:25:13.016Z,12.70
2019-05-22T11:27:41.775Z,12.60
2019-05-22T11:30:12.121Z,12.60
2019-05-22T11:32:40.781Z,12.50
2019-05-22T11:35:10.222Z,12.60
2019-05-22T11:37:39.463Z,12.80
2019-05-22T11:40:09.962Z,13.10
2019-05-22T11:42:39.212Z,13.70
2019-05-22T11:45:12.986Z,14.20
2019-05-22T11:47:41.952Z,14.50
2019-05-22T11:50:12.523Z,14.40
2019-05-22T11:52:42.121Z,14.40
2019-05-22T11:55:12.827Z,14.50
2019-05-22T11:57:43.258Z,14.50
2019-05-22T12:00:14.989Z,14.50
2019-05-22T12:02:45.143Z,14.70
2019-05-22T12:05:15.284Z,14.50
2019-05-22T12:07:46.084Z,14.50
2019-05-22T12:10:15.904Z,14.40
2019-05-22T12:12:45.102Z,14.20
2019-05-22T12:15:14.938Z,14.10
2019-05-22T12:56:25.751Z,14.50
2019-05-22T12:58:55.672Z,14.80
2019-05-22T13:01:24.942Z,14.90
2019-05-22T13:03:55.719Z,15.00
2019-05-22T13:06:25.417Z,14.90
2019-05-22T13:08:53.928Z,15.00
2019-05-22T13:11:22.346Z,14.90
2019-05-22T13:13:51.428Z,15.30
2019-05-22T13:16:20.220Z,15.50
2019-05-22T13:18:50.429Z,15.10
2019-05-22T13:21:22.417Z,15.20
2019-05-22T13:23:53.279Z,15.50
2019-05-22T13:26:23.686Z,15.40
2019-05-22T13:28:53.084Z,15.00
2019-05-22T13:31:22.253Z,15.00
2019-05-22T13:33:52.644Z,15.20
2019-05-22T13:36:22.340Z,15.10
2019-05-22T13:38:50.820Z,15.00
2019-05-22T13:41:19.765Z,15.10
2019-05-22T13:43:49.022Z,15.30
2019-05-22T13:46:17.780Z,15.40
2019-05-22T13:48:46.613Z,15.50
2019-05-22T13:51:15.306Z,15.70
2019-05-22T13:53:44.772Z,15.60
2019-05-22T13:56:14.025Z,15.70
2019-05-22T13:58:43.352Z,15.80
2019-05-22T14:01:12.302Z,15.70
2019-05-22T14:03:41.065Z,15.70
2019-05-22T14:06:09.876Z,15.50
2019-05-22T14:08:38.564Z,15.30
2019-05-22T14:11:07.638Z,15.10
2019-05-22T14:13:37.265Z,15.00
2019-05-22T14:16:06.197Z,15.00
2019-05-22T14:18:34.932Z,14.70
2019-05-22T14:21:03.381Z,14.50
2019-05-22T14:23:31.795Z,14.60
2019-05-22T14:26:00.299Z,14.70
2019-05-22T14:28:30.352Z,14.70
2019-05-22T14:30:58.836Z,14.80
2019-05-22T14:33:28.330Z,15.00
2019-05-22T14:35:58.438Z,15.20
2019-05-22T14:38:27.790Z,15.20
2019-05-22T14:40:56.649Z,15.20
2019-05-22T14:43:25.142Z,15.30
2019-05-22T14:45:54.128Z,15.20
2019-05-22T14:48:22.686Z,15.30
2019-05-22T14:50:51.204Z,15.20
2019-05-22T14:53:19.857Z,15.20
2019-05-22T14:55:49.981Z,15.10
2019-05-22T14:58:19.240Z,15.00
2019-05-22T15:00:48.518Z,15.20
2019-05-22T15:03:17.635Z,15.30
2019-05-22T15:05:46.121Z,15.50
2019-05-22T15:08:14.680Z,15.50
2019-05-22T15:10:43.536Z,15.30
2019-05-22T15:13:11.950Z,15.60
2019-05-22T15:15:40.969Z,15.30
2019-05-22T15:18:11.068Z,15.20
2019-05-22T15:20:56.874Z,15.10
2019-05-22T15:23:25.891Z,15.20
2019-05-22T15:25:54.361Z,15.20
2019-05-22T15:28:26.632Z,15.30
2019-05-22T15:30:54.590Z,15.00
2019-05-22T15:33:23.869Z,14.90
2019-05-22T15:35:53.647Z,14.80
2019-05-22T15:38:22.751Z,14.80
2019-05-22T15:40:53.184Z,14.60
2019-05-22T15:43:23.632Z,14.70
2019-05-22T15:45:53.298Z,14.40
2019-05-22T15:48:30.281Z,14.40
2019-05-22T15:51:02.482Z,14.20
2019-05-22T15:53:33.305Z,14.20
2019-05-22T15:56:07.021Z,14.30
2019-05-22T15:58:37.262Z,14.40
2019-05-22T16:01:08.164Z,14.30
2019-05-22T16:03:37.832Z,14.20
2019-05-22T16:06:07.288Z,14.10
2019-05-22T16:08:36.228Z,14.20
2019-05-22T16:11:08.860Z,14.30
2019-05-22T16:13:38.790Z,14.30
2019-05-22T16:16:09.594Z,14.30
2019-05-22T16:18:38.536Z,14.20
2019-05-22T16:21:10.693Z,14.20
2019-05-22T16:23:40.175Z,14.30
2019-05-22T16:26:11.532Z,14.20
2019-05-22T16:28:40.833Z,14.30
2019-05-22T16:31:10.384Z,14.10
2019-05-22T16:33:41.588Z,14.10
2019-05-22T16:36:10.995Z,14.10
2019-05-22T16:38:39.976Z,14.20
2019-05-22T16:41:09.451Z,14.10
2019-05-22T16:43:48.889Z,14.10
2019-05-22T16:46:12.563Z,14.10
2019-05-22T16:48:43.027Z,14.20
2019-05-22T16:51:13.296Z,14.20
2019-05-22T16:53:43.446Z,14.20
2019-05-22T16:56:12.111Z,14.00
2019-05-22T16:58:40.537Z,14.20
2019-05-22T17:01:09.954Z,14.30
2019-05-22T17:03:40.070Z,14.20
2019-05-22T17:06:08.764Z,14.20
2019-05-22T17:08:37.245Z,14.20
2019-05-22T17:11:07.566Z,14.30
2019-05-22T17:13:36.802Z,14.30
2019-05-22T17:16:06.816Z,14.30
2019-05-22T17:18:46.955Z,14.30
2019-05-22T17:21:06.737Z,14.30
2019-05-22T17:23:35.703Z,14.20
2019-05-22T17:26:05.039Z,14.00
2019-05-22T17:28:34.359Z,13.90
2019-05-22T17:31:03.111Z,14.00
2019-05-22T17:33:33.530Z,13.90
2019-05-22T17:36:05.759Z,14.10
2019-05-22T17:38:33.761Z,14.20
2019-05-22T17:41:03.317Z,14.10
2019-05-22T17:43:33.622Z,13.90
2019-05-22T17:46:03.967Z,13.90
2019-05-22T17:48:33.812Z,13.70
2019-05-22T17:51:03.184Z,13.60
2019-05-22T17:53:32.316Z,13.60
2019-05-22T17:56:02.801Z,13.60
2019-05-22T17:58:31.266Z,13.60
2019-05-22T18:01:00.906Z,13.60
2019-05-22T18:03:29.621Z,13.70
2019-05-22T18:05:58.406Z,13.60
2019-05-22T18:08:27.967Z,13.70
2019-05-22T18:10:57.099Z,13.70
2019-05-22T18:13:25.669Z,13.60
2019-05-22T18:15:54.099Z,13.60
2019-05-22T18:18:23.118Z,13.60
2019-05-22T18:20:52.163Z,13.50
2019-05-22T18:23:21.259Z,13.30
2019-05-22T18:25:49.664Z,13.40
2019-05-22T18:28:18.270Z,13.30
2019-05-22T18:30:47.057Z,13.30
2019-05-22T18:33:16.104Z,13.30
2019-05-22T18:35:44.698Z,13.20
2019-05-22T18:38:13.552Z,13.20
2019-05-22T18:40:42.415Z,13.30
2019-05-22T18:43:11.557Z,13.30
2019-05-22T18:45:40.503Z,13.40
2019-05-22T18:48:09.877Z,13.40
2019-05-22T18:50:38.640Z,13.20
2019-05-22T18:53:07.794Z,13.20
2019-05-22T18:55:36.501Z,13.10
2019-05-22T18:58:05.233Z,13.20
2019-05-22T19:00:34.591Z,13.10
2019-05-22T19:03:03.533Z,13.00
2019-05-22T19:05:33.679Z,12.90
2019-05-22T19:08:02.315Z,12.90
2019-05-22T19:10:31.918Z,12.80
2019-05-22T19:13:01.129Z,12.80
2019-05-22T19:15:30.526Z,12.70
2019-05-22T19:17:59.523Z,12.70
2019-05-22T19:20:28.576Z,12.60
2019-05-22T19:23:01.513Z,12.60
2019-05-22T19:25:30.374Z,12.60
2019-05-22T19:27:59.286Z,12.50
2019-05-22T19:30:28.785Z,12.40
2019-05-22T19:32:58.072Z,12.30
2019-05-22T19:35:30.363Z,12.20
2019-05-22T19:38:02.507Z,12.10
2019-05-22T19:40:31.806Z,12.10
2019-05-22T19:43:01.836Z,12.00
2019-05-22T19:45:33.222Z,12.00
2019-05-22T19:48:02.897Z,11.90
2019-05-22T19:50:33.748Z,11.80
2019-05-22T19:53:18.101Z,11.80
2019-05-22T19:55:34.888Z,11.70
2019-05-22T19:58:04.461Z,11.60
2019-05-22T20:00:34.258Z,11.60
2019-05-22T20:03:03.796Z,11.50
2019-05-22T20:05:34.403Z,11.40
2019-05-22T20:08:04.725Z,11.30
2019-05-22T20:10:33.861Z,11.20
2019-05-22T20:13:04.486Z,11.20
2019-05-22T20:15:33.392Z,11.10
2019-05-22T20:18:03.106Z,11.00
2019-05-22T20:20:32.506Z,11.00
2019-05-22T20:23:01.875Z,11.00
2019-05-22T20:25:31.027Z,11.00
2019-05-22T20:28:01.995Z,10.90
2019-05-22T20:30:31.411Z,10.80
2019-05-22T20:33:00.756Z,10.70
2019-05-22T20:35:29.807Z,10.60
2019-05-22T20:38:00.474Z,10.60
2019-05-22T20:40:29.194Z,10.50
2019-05-22T20:42:57.848Z,10.50
2019-05-22T20:45:27.616Z,10.50
2019-05-22T20:48:06.227Z,10.50
2019-05-22T20:50:36.410Z,10.50
2019-05-22T20:53:07.330Z,10.30
2019-05-22T20:55:37.019Z,10.30
2019-05-22T20:58:08.108Z,10.20
2019-05-22T21:00:36.674Z,10.20
2019-05-22T21:03:08.189Z,10.20
2019-05-22T21:05:37.325Z,10.30
2019-05-22T21:08:09.409Z,10.20
2019-05-22T21:10:40.585Z,10.10
2019-05-22T21:13:09.731Z,10.10
2019-05-22T21:15:38.582Z,10.00
2019-05-22T21:18:07.310Z,10.00
2019-05-22T21:20:53.325Z,10.00
2019-05-22T21:23:09.289Z,9.90
2019-05-22T21:25:38.718Z,9.80
2019-05-22T21:28:07.885Z,9.80
2019-05-22T21:30:38.201Z,9.70
2019-05-22T21:33:07.026Z,9.60
2019-05-22T21:35:36.101Z,9.50
2019-05-22T21:38:05.298Z,9.50
2019-05-22T21:40:34.290Z,9.40
2019-05-22T21:43:03.227Z,9.40
2019-05-22T21:45:32.009Z,9.40
2019-05-22T21:48:01.055Z,9.40
2019-05-22T21:50:29.794Z,9.30
2019-05-22T21:52:59.153Z,9.20
2019-05-22T21:55:28.277Z,9.30
2019-05-22T21:57:57.284Z,9.30
2019-05-22T22:00:42.671Z,9.20
2019-05-22T22:03:13.367Z,9.20
2019-05-22T22:05:42.224Z,9.20
2019-05-22T22:08:11.425Z,9.20
2019-05-22T22:10:40.219Z,9.10
2019-05-22T22:13:09.304Z,9.10
2019-05-22T22:15:41.176Z,9.10
2019-05-22T22:18:10.267Z,9.10
2019-05-22T22:20:39.222Z,9.10
2019-05-22T22:23:07.814Z,9.20
2019-05-22T22:25:36.964Z,9.30
2019-05-22T22:28:05.856Z,9.40
2019-05-22T22:30:35.981Z,9.50
2019-05-22T22:33:07.852Z,9.50
2019-05-22T22:35:36.465Z,9.50
2019-05-22T22:38:06.527Z,9.50
2019-05-22T22:40:35.798Z,9.50
2019-05-22T22:43:06.234Z,9.50
2019-05-22T22:45:43.668Z,9.50
2019-05-22T22:48:16.408Z,9.50
2019-05-22T22:50:45.710Z,9.50
2019-05-22T22:53:15.620Z,9.40
2019-05-22T22:55:44.414Z,9.30
2019-05-22T22:58:17.086Z,9.30
2019-05-22T23:00:46.225Z,9.30
2019-05-22T23:03:18.200Z,9.30
2019-05-22T23:05:48.647Z,9.30
2019-05-22T23:08:26.249Z,9.30
2019-05-22T23:10:55.216Z,9.30
2019-05-22T23:13:25.236Z,9.30
2019-05-22T23:15:54.512Z,9.40
2019-05-22T23:18:45.760Z,9.40
2019-05-22T23:21:14.738Z,9.40
2019-05-22T23:23:42.245Z,9.50
2019-05-22T23:26:11.562Z,9.40
2019-05-22T23:28:41.605Z,9.40
2019-05-22T23:31:11.606Z,9.50
2019-05-22T23:33:40.428Z,9.40
2019-05-22T23:36:10.666Z,9.30
2019-05-22T23:38:39.505Z,9.20
2019-05-22T23:41:08.855Z,9.10
2019-05-22T23:43:38.001Z,9.00
2019-05-22T23:46:08.499Z,9.10
2019-05-22T23:48:37.893Z,9.10
2019-05-22T23:51:08.122Z,9.10
2019-05-22T23:53:37.606Z,9.20
2019-05-22T23:56:06.290Z,9.20
2019-05-22T23:58:49.805Z,9.20
